Bookmark and Share
Track history (hours):
 

Cotes De La Manche

Last reported at 2014-Apr-16 07:33 UTC. Time now 2014-Apr-16 07:42 UTC.
Position N 48°16' W 004°38'.

Length 25 m; draft 3.7 m.

Type: Other ship. MMSI: 227091000.

NotesDate/timePositionNaut miles runAvg speedWind from/ knotsBaromVisibWave heightAir tempDewpointWater temp
2014-Apr-16 07:33N 48°16' W 004°38'9 9.1
2014-Apr-16 06:33N 48°23' W 004°29'0 0.0
2014-Apr-16 05:33N 48°23' W 004°29'0 0.0
2014-Apr-16 04:33N 48°23' W 004°29'0 0.0
2014-Apr-16 03:33N 48°23' W 004°29'0 0.0
2014-Apr-16 02:33N 48°23' W 004°29'0 0.0
2014-Apr-16 01:32N 48°23' W 004°29'0 0.0
2014-Apr-16 00:33N 48°23' W 004°29'0 0.0
2014-Apr-15 23:33N 48°23' W 004°29'0 0.0
2014-Apr-15 22:33N 48°23' W 004°29'0 0.0
2014-Apr-15 21:33N 48°23' W 004°29'0 0.0
2014-Apr-15 20:33N 48°23' W 004°29'0 0.0
2014-Apr-15 19:32N 48°23' W 004°29'0 0.0
2014-Apr-15 18:32N 48°23' W 004°29'0 0.0
2014-Apr-15 17:33N 48°23' W 004°29'0 0.0
2014-Apr-15 16:33N 48°23' W 004°29'0 0.0
2014-Apr-15 15:33N 48°23' W 004°29'0 0.0
2014-Apr-15 14:33N 48°23' W 004°29'0 0.0
2014-Apr-15 12:33N 48°23' W 004°29'0 0.0
2014-Apr-15 11:34N 48°23' W 004°29'0 0.0
2014-Apr-15 10:33N 48°23' W 004°29'0 0.0
2014-Apr-15 09:34N 48°23' W 004°29'0 0.0
2014-Apr-15 08:32N 48°23' W 004°29'1 1.0
2014-Apr-15 07:34N 48°22' W 004°29'9 8.6
2014-Apr-15 06:33N 48°16' W 004°38'63 7.9
2014-Apr-14 22:34N 47°33' W 003°29'1010.3
2014-Apr-14 21:33N 47°30' W 003°14'84 2.0
2014-Apr-13 04:15N 46°30' W 001°47'0 0.0
2014-Apr-13 03:33N 46°30' W 001°47'0 0.0
2014-Apr-13 02:33N 46°30' W 001°47'0 0.0
2014-Apr-13 01:33N 46°30' W 001°47'0 0.0
2014-Apr-13 00:33N 46°30' W 001°47'0 0.0
2014-Apr-12 23:33N 46°30' W 001°47'0 0.0
2014-Apr-12 22:33N 46°30' W 001°47'0 0.0
2014-Apr-12 21:33N 46°30' W 001°47'0 0.0
2014-Apr-12 20:33N 46°30' W 001°47'0 0.0
2014-Apr-12 19:33N 46°30' W 001°47'0 0.0
2014-Apr-12 18:33N 46°30' W 001°47'0 0.0
2014-Apr-12 17:33N 46°30' W 001°47'0 0.0
2014-Apr-12 16:33N 46°30' W 001°47'0 0.0
2014-Apr-12 15:33N 46°30' W 001°47'0 0.0
2014-Apr-12 14:33N 46°30' W 001°47'0 0.0
2014-Apr-12 13:33N 46°30' W 001°47'0 0.0
2014-Apr-12 12:33N 46°30' W 001°47'0 0.0
2014-Apr-12 11:33N 46°30' W 001°47'0 0.0
2014-Apr-12 10:33N 46°30' W 001°47'0 0.0
2014-Apr-12 03:33N 46°30' W 001°47'0 0.0
2014-Apr-12 02:33N 46°30' W 001°47'0 0.0
2014-Apr-12 01:33N 46°30' W 001°47'0 0.0
2014-Apr-12 00:33N 46°30' W 001°47'0 0.0
2014-Apr-11 23:33N 46°30' W 001°47'0 0.0
2014-Apr-11 22:33N 46°30' W 001°47'0 0.0
2014-Apr-11 21:33N 46°30' W 001°47'0 0.0
2014-Apr-11 20:33N 46°30' W 001°47'0 0.0
2014-Apr-11 19:33N 46°30' W 001°47'0 0.0
2014-Apr-11 18:33N 46°30' W 001°47'0 0.0
2014-Apr-11 17:33N 46°30' W 001°47'0 0.0
2014-Apr-11 16:33N 46°30' W 001°47'0 0.0
2014-Apr-11 15:33N 46°30' W 001°47'0 0.0
2014-Apr-11 14:33N 46°30' W 001°47'0 0.0
2014-Apr-11 13:34N 46°30' W 001°47'0 0.0
2014-Apr-11 12:33N 46°30' W 001°47'0 0.0
2014-Apr-11 11:34N 46°30' W 001°47'0 0.0
2014-Apr-11 10:33N 46°30' W 001°47'0 0.0
2014-Apr-11 09:33N 46°30' W 001°47'0 0.0
2014-Apr-11 08:34N 46°30' W 001°47'0 0.0
2014-Apr-11 07:33N 46°30' W 001°47'0 0.0
2014-Apr-11 06:33N 46°30' W 001°47'0 0.0
2014-Apr-11 05:33N 46°30' W 001°47'0 0.0
2014-Apr-11 04:33N 46°30' W 001°47'0 0.0
2014-Apr-11 03:33N 46°30' W 001°47'0 0.0
2014-Apr-11 02:33N 46°30' W 001°47'0 0.0
2014-Apr-11 01:33N 46°30' W 001°47'0 0.0
2014-Apr-11 00:33N 46°30' W 001°47'0 0.0
2014-Apr-10 23:33N 46°30' W 001°47'0 0.0
2014-Apr-10 22:34N 46°30' W 001°47'0 0.0
2014-Apr-10 21:33N 46°30' W 001°47'0 0.0
2014-Apr-10 20:34N 46°30' W 001°47'0 0.0
2014-Apr-10 19:33N 46°30' W 001°47'0 0.0
2014-Apr-10 18:33N 46°30' W 001°47'0 0.0
2014-Apr-10 17:33N 46°30' W 001°47'0 0.0
2014-Apr-10 16:33N 46°30' W 001°47'0 0.0
2014-Apr-10 15:33N 46°30' W 001°47'0 0.0
2014-Apr-10 14:34N 46°30' W 001°47'0 0.0
2014-Apr-10 13:33N 46°30' W 001°47'0 0.0
2014-Apr-10 12:33N 46°30' W 001°47'0 0.0
2014-Apr-10 11:33N 46°30' W 001°47'0 0.0
2014-Apr-10 10:33N 46°30' W 001°47'0 0.0
2014-Apr-10 09:33N 46°30' W 001°47'0 0.0
2014-Apr-10 08:33N 46°30' W 001°47'0 0.0
2014-Apr-10 07:33N 46°30' W 001°47'0 0.0
2014-Apr-10 06:33N 46°30' W 001°47'0 0.0
2014-Apr-10 05:33N 46°30' W 001°47'0 0.0
2014-Apr-10 04:33N 46°30' W 001°47'0 0.0
2014-Apr-10 03:33N 46°30' W 001°47'0 0.0
2014-Apr-10 02:33N 46°30' W 001°47'0 0.0
2014-Apr-10 01:33N 46°30' W 001°47'0 0.0
2014-Apr-10 00:33N 46°30' W 001°47'0 0.0
2014-Apr-09 23:33N 46°30' W 001°47'0 0.0
2014-Apr-09 22:33N 46°30' W 001°47'0 0.0
2014-Apr-09 21:34N 46°30' W 001°47'0 0.0
2014-Apr-09 20:33N 46°30' W 001°47'0 0.0
2014-Apr-09 19:33N 46°30' W 001°47'0 0.0
2014-Apr-09 18:33N 46°30' W 001°47'0 0.0
2014-Apr-09 17:33N 46°30' W 001°47'0 0.0
2014-Apr-09 16:33N 46°30' W 001°47'0 0.0
2014-Apr-09 15:33N 46°30' W 001°47'0 0.0
2014-Apr-09 14:33N 46°30' W 001°47'0 0.0
2014-Apr-08 19:11N 46°30' W 001°47'0 0.0
2014-Apr-08 18:33N 46°30' W 001°47'0 0.0
2014-Apr-08 17:33N 46°30' W 001°47'0 0.0
2014-Apr-08 16:33N 46°30' W 001°47'0 0.0
2014-Apr-08 15:33N 46°30' W 001°47'0 0.0
2014-Apr-08 14:33N 46°30' W 001°47'0 0.0
2014-Apr-08 13:33N 46°30' W 001°47'0 0.0
2014-Apr-08 12:33N 46°30' W 001°47'0 0.0
2014-Apr-08 11:33N 46°30' W 001°47'0 0.0
2014-Apr-08 10:33N 46°30' W 001°47'0 0.0
2014-Apr-08 09:33N 46°30' W 001°47'0 0.0
2014-Apr-08 08:33N 46°30' W 001°47'0 0.0
2014-Apr-08 07:33N 46°30' W 001°47'0 0.0
2014-Apr-08 06:33N 46°30' W 001°47'0 0.0
2014-Apr-08 05:33N 46°30' W 001°47'0 0.0
2014-Apr-08 04:33N 46°30' W 001°47'0 0.0
2014-Apr-08 03:33N 46°30' W 001°47'0 0.0
2014-Apr-08 02:33N 46°30' W 001°47'0 0.0
2014-Apr-08 01:33N 46°30' W 001°47'0 0.0
2014-Apr-08 00:33N 46°30' W 001°47'0 0.0
2014-Apr-07 23:33N 46°30' W 001°47'0 0.0
2014-Apr-07 22:33N 46°30' W 001°47'0 0.0
2014-Apr-07 21:33N 46°30' W 001°47'0 0.0
2014-Apr-07 20:33N 46°30' W 001°47'0 0.0
2014-Apr-07 19:33N 46°30' W 001°47'0 0.0
2014-Apr-07 17:33N 46°30' W 001°47'0 0.0
2014-Apr-07 16:33N 46°30' W 001°47'0 0.0
2014-Apr-07 15:33N 46°30' W 001°47'0 0.0
2014-Apr-07 14:33N 46°30' W 001°47'0 0.0
2014-Apr-07 13:33N 46°30' W 001°47'0 0.0
2014-Apr-07 12:33N 46°30' W 001°47'0 0.0
2014-Apr-07 11:33N 46°30' W 001°47'0 0.0
2014-Apr-07 10:33N 46°30' W 001°47'0 0.0
2014-Apr-07 09:33N 46°30' W 001°47'0 0.0
2014-Apr-07 08:33N 46°30' W 001°47'0 0.0
2014-Apr-07 07:33N 46°30' W 001°47'0 0.0
2014-Apr-07 06:33N 46°30' W 001°47'0 0.0
2014-Apr-07 05:33N 46°30' W 001°47'  

Dump ship's entire track history

sailing weather and tide predictions

Cotes De La Manche — FQBE — position and weather